Time;durP1;ratioP1;P1;durP2;ratioP2;P2;SDS_P1;SDS_P2;PMS_P1;PMS_P2;Temp;Humidity;BMP_temperature;BMP_pressure;BME280_temperature;BME280_humidity;BME280_pressure;Samples;Min_cycle;Max_cycle;Signal;HPM_P1;HPM_P2
2023/05/04 00:00:21;;;;;;;7.53;4.53;;;7.00;99.90;;;;;;4978821;28;20050;-83
2023/05/04 00:02:49;;;;;;;6.70;4.50;;;8.00;99.90;;;;;;4962087;28;20054;-80
2023/05/04 00:05:15;;;;;;;7.18;4.80;;;8.60;99.90;;;;;;4974125;28;20722;-81
2023/05/04 00:07:42;;;;;;;8.93;4.82;;;7.40;99.90;;;;;;4957709;28;20053;-81
2023/05/04 00:10:08;;;;;;;7.90;4.70;;;7.30;99.90;;;;;;4970619;28;20046;-82
2023/05/04 00:12:45;;;;;;;8.82;4.60;;;7.20;99.90;;;;;;4984003;28;20077;-80
2023/05/04 00:15:11;;;;;;;10.38;5.18;;;;;;;;;;4979142;28;20184;-82
2023/05/04 00:17:37;;;;;;;9.27;4.55;;;7.30;99.90;;;;;;4982196;28;20054;-82
2023/05/04 00:20:03;;;;;;;7.63;4.78;;;8.40;99.90;;;;;;4980073;28;20054;-81
2023/05/04 00:22:28;;;;;;;8.80;4.43;;;7.20;99.90;;;;;;4960128;28;20042;-81
2023/05/04 00:24:54;;;;;;;6.70;4.50;;;9.90;99.90;;;;;;4982460;28;20124;-80
2023/05/04 00:27:21;;;;;;;10.38;4.70;;;7.50;99.90;;;;;;4959353;28;20079;-81
2023/05/04 00:29:47;;;;;;;8.02;4.35;;;7.10;99.90;;;;;;4959691;28;20072;-82
2023/05/04 00:32:12;;;;;;;6.55;4.28;;;8.90;99.90;;;;;;4991822;28;20490;-82
2023/05/04 00:34:39;;;;;;;8.23;4.60;;;9.10;99.90;;;;;;4968112;28;20073;-82
2023/05/04 00:37:05;;;;;;;10.52;4.45;;;9.20;99.90;;;;;;4997050;28;20035;-82
2023/05/04 00:39:33;;;;;;;9.10;4.38;;;8.60;99.90;;;;;;4966410;28;20053;-83
2023/05/04 00:41:59;;;;;;;8.38;4.40;;;9.00;99.90;;;;;;4978101;28;20470;-83
2023/05/04 00:44:26;;;;;;;6.53;4.18;;;7.50;99.90;;;;;;4971620;28;20487;-83
2023/05/04 00:46:52;;;;;;;8.95;4.55;;;8.20;99.90;;;;;;4963655;28;20046;-81
2023/05/04 00:49:25;;;;;;;7.90;4.30;;;9.50;99.90;;;;;;4957409;28;20496;-81
2023/05/04 00:52:13;;;;;;;7.55;4.72;;;7.00;99.90;;;;;;4959147;28;20110;-81
2023/05/04 00:54:43;;;;;;;7.28;4.10;;;7.90;99.90;;;;;;4925848;28;20057;-81
2023/05/04 00:57:12;;;;;;;7.40;3.97;;;7.70;99.90;;;;;;4951120;28;20533;-81
2023/05/04 00:59:46;;;;;;;10.10;4.32;;;6.80;99.90;;;;;;4993276;28;20129;-81
2023/05/04 01:02:15;;;;;;;7.68;4.63;;;;;;;;;;4983261;28;20061;-82
2023/05/04 01:04:46;;;;;;;5.68;4.55;;;7.00;99.90;;;;;;4962259;28;20060;-81
2023/05/04 01:07:36;;;;;;;8.43;4.10;;;7.00;99.90;;;;;;4958010;28;20446;-81
2023/05/04 01:10:11;;;;;;;10.15;5.05;;;7.00;99.90;;;;;;4950654;28;20049;-82
2023/05/04 01:13:05;;;;;;;11.18;4.03;;;7.00;99.90;;;;;;4965789;28;20068;-81
2023/05/04 01:15:35;;;;;;;6.75;4.07;;;6.90;99.90;;;;;;4968240;28;20149;-82
2023/05/04 01:18:03;;;;;;;5.85;3.70;;;8.60;99.90;;;;;;4979435;28;20097;-81
2023/05/04 01:20:38;;;;;;;9.38;4.65;;;6.90;99.90;;;;;;4979088;28;20150;-80
2023/05/04 01:23:04;;;;;;;8.52;4.20;;;6.90;99.90;;;;;;4940596;28;20047;-81
2023/05/04 01:25:53;;;;;;;7.68;4.55;;;9.60;99.90;;;;;;4965196;28;20112;-82
2023/05/04 01:28:40;;;;;;;7.40;4.20;;;4.60;99.90;;;;;;4961792;28;20384;-82
2023/05/04 01:31:12;;;;;;;5.60;4.13;;;6.90;99.90;;;;;;4946331;28;20164;-82
2023/05/04 01:33:41;;;;;;;9.27;4.97;;;9.30;99.90;;;;;;4961741;28;20785;-82
2023/05/04 01:36:08;;;;;;;8.25;4.65;;;6.80;99.90;;;;;;4963317;28;20055;-80
2023/05/04 01:38:34;;;;;;;9.27;3.95;;;6.80;99.90;;;;;;4983379;28;20042;-82
2023/05/04 01:41:00;;;;;;;12.77;5.80;;;8.80;99.90;;;;;;4963478;28;20137;-81
2023/05/04 01:43:27;;;;;;;10.63;5.20;;;6.70;99.90;;;;;;4978577;28;20121;-81
2023/05/04 01:45:52;;;;;;;8.50;5.00;;;6.70;99.90;;;;;;4942867;29;20044;-80
2023/05/04 01:48:18;;;;;;;11.23;6.15;;;6.80;99.90;;;;;;4964190;28;20057;-81
2023/05/04 01:50:44;;;;;;;10.85;5.22;;;8.80;99.90;;;;;;4975727;28;20050;-80
2023/05/04 01:53:10;;;;;;;11.90;4.70;;;7.50;99.90;;;;;;4945126;28;20138;-83
2023/05/04 01:55:35;;;;;;;10.73;5.22;;;8.60;99.90;;;;;;4963205;28;20097;-80
2023/05/04 01:58:01;;;;;;;9.38;5.07;;;6.70;99.90;;;;;;4945282;28;20083;-80
2023/05/04 02:00:30;;;;;;;7.72;4.43;;;7.70;99.90;;;;;;4968023;28;20046;-82
2023/05/04 02:02:55;;;;;;;8.70;4.90;;;6.70;99.90;;;;;;4964184;28;20181;-80
2023/05/04 02:05:22;;;;;;;8.80;5.45;;;6.50;99.90;;;;;;4959932;28;20058;-81
2023/05/04 02:07:49;;;;;;;10.38;5.03;;;4.90;99.90;;;;;;4951839;28;20077;-81
2023/05/04 02:10:15;;;;;;;11.95;5.88;;;6.20;99.90;;;;;;4935579;28;20050;-79
2023/05/04 02:12:41;;;;;;;7.72;5.30;;;6.80;99.90;;;;;;4979109;28;20498;-83
2023/05/04 02:15:08;;;;;;;10.68;5.30;;;6.70;99.90;;;;;;4962896;28;20474;-81
2023/05/04 02:17:33;;;;;;;17.27;5.30;;;6.60;99.90;;;;;;4943809;28;20696;-80
2023/05/04 02:19:59;;;;;;;7.78;5.03;;;9.30;99.90;;;;;;4941039;29;20062;-79
2023/05/04 02:22:25;;;;;;;10.38;5.28;;;6.10;99.90;;;;;;4947402;28;21506;-81
2023/05/04 02:24:50;;;;;;;11.85;5.75;;;9.30;99.90;;;;;;4952449;28;20499;-79
2023/05/04 02:27:16;;;;;;;9.40;5.55;;;9.80;99.90;;;;;;4959644;28;20054;-80
2023/05/04 02:29:43;;;;;;;9.73;5.50;;;8.80;99.90;;;;;;4951805;28;20549;-80
2023/05/04 02:32:12;;;;;;;9.15;5.70;;;9.10;99.90;;;;;;4946514;28;20424;-81
2023/05/04 02:34:41;;;;;;;10.55;6.07;;;6.40;99.90;;;;;;4968888;28;20077;-80
2023/05/04 02:37:09;;;;;;;9.32;5.45;;;9.30;99.90;;;;;;4951278;28;20046;-80
2023/05/04 02:39:39;;;;;;;7.32;5.82;;;6.50;99.90;;;;;;4935629;28;20157;-80
2023/05/04 02:42:07;;;;;;;6.75;5.13;;;8.20;99.90;;;;;;4947032;28;20051;-82
2023/05/04 02:44:33;;;;;;;14.73;5.93;;;6.50;99.90;;;;;;4943966;28;20047;-83
2023/05/04 02:47:00;;;;;;;12.02;5.85;;;9.40;99.90;;;;;;4959866;28;20113;-82
2023/05/04 02:49:29;;;;;;;9.18;5.47;;;6.50;99.90;;;;;;4930135;28;20383;-81
2023/05/04 02:51:54;;;;;;;9.20;6.30;;;6.50;99.90;;;;;;4943044;28;20070;-81
2023/05/04 02:54:20;;;;;;;11.05;7.03;;;8.40;99.90;;;;;;4946221;28;20054;-81
2023/05/04 02:56:56;;;;;;;7.78;5.35;;;9.10;99.90;;;;;;4956636;28;20129;-81
2023/05/04 02:59:22;;;;;;;6.57;5.18;;;9.20;99.90;;;;;;4935918;28;20051;-78
2023/05/04 03:01:52;;;;;;;10.52;6.45;;;9.10;99.90;;;;;;4957550;28;20058;-80
2023/05/04 03:04:18;;;;;;;10.52;6.63;;;8.40;99.90;;;;;;4941281;28;20399;-81
2023/05/04 03:06:44;;;;;;;9.43;5.40;;;6.50;99.90;;;;;;4966579;28;20043;-80
2023/05/04 03:09:10;;;;;;;9.13;5.82;;;6.50;99.90;;;;;;4941435;28;20044;-80
2023/05/04 03:11:35;;;;;;;9.40;5.15;;;8.50;99.90;;;;;;4941457;28;20531;-79
2023/05/04 03:14:01;;;;;;;8.48;5.43;;;9.20;99.90;;;;;;4963433;28;20054;-80
2023/05/04 03:16:26;;;;;;;9.50;6.25;;;6.40;99.90;;;;;;4966835;28;20066;-83
2023/05/04 03:18:52;;;;;;;10.80;4.88;;;6.50;99.90;;;;;;4962229;28;20054;-80
2023/05/04 03:21:26;;;;;;;8.02;5.45;;;6.50;99.90;;;;;;4965981;28;20430;-80
2023/05/04 03:23:53;;;;;;;10.55;5.45;;;8.40;99.90;;;;;;4967161;28;20051;-83
2023/05/04 03:26:18;;;;;;;8.85;6.55;;;6.60;99.90;;;;;;4947392;28;20122;-83
2023/05/04 03:28:44;;;;;;;9.32;5.35;;;6.50;99.90;;;;;;4983719;28;20498;-81
2023/05/04 03:31:10;;;;;;;9.77;6.00;;;8.40;99.90;;;;;;4998721;28;20117;-81
2023/05/04 03:33:35;;;;;;;9.18;6.15;;;6.80;99.90;;;;;;4984728;28;20380;-81
2023/05/04 03:36:01;;;;;;;11.65;5.85;;;;;;;;;;4994263;28;20113;-81
2023/05/04 03:38:27;;;;;;;9.70;5.63;;;6.50;99.90;;;;;;4957182;28;21257;-81
2023/05/04 03:40:53;;;;;;;9.02;6.15;;;;;;;;;;4994832;28;20082;-81
2023/05/04 03:43:19;;;;;;;8.95;5.78;;;6.50;99.90;;;;;;4961604;28;20494;-81
2023/05/04 03:45:45;;;;;;;12.02;5.70;;;6.60;99.90;;;;;;4971156;28;20047;-80
2023/05/04 03:48:10;;;;;;;10.90;6.53;;;9.50;99.90;;;;;;4973309;28;20047;-82
2023/05/04 03:50:36;;;;;;;6.80;5.18;;;7.90;99.90;;;;;;4979624;28;20050;-81
2023/05/04 03:53:02;;;;;;;10.30;5.65;;;7.00;99.90;;;;;;4990221;28;20448;-82
2023/05/04 03:55:27;;;;;;;8.63;5.68;;;7.80;99.90;;;;;;4942287;28;20047;-82
2023/05/04 03:57:56;;;;;;;11.90;6.13;;;6.60;99.90;;;;;;4995115;28;20474;-81
2023/05/04 04:00:23;;;;;;;9.88;5.97;;;9.20;99.90;;;;;;4979896;28;20073;-81
2023/05/04 04:02:50;;;;;;;12.02;5.55;;;6.60;99.90;;;;;;4973555;28;20081;-81
2023/05/04 04:05:18;;;;;;;6.88;5.72;;;7.50;99.90;;;;;;4957906;28;20059;-81
2023/05/04 04:07:44;;;;;;;11.15;6.28;;;6.60;99.90;;;;;;4966669;28;20112;-83
2023/05/04 04:10:11;;;;;;;12.10;6.07;;;6.60;99.90;;;;;;4987108;28;20546;-82
2023/05/04 04:12:38;;;;;;;13.45;6.22;;;6.60;99.90;;;;;;4977929;28;20128;-83
2023/05/04 04:15:04;;;;;;;10.73;6.80;;;8.50;99.90;;;;;;4960243;28;20055;-81
2023/05/04 04:17:29;;;;;;;11.13;6.00;;;6.60;99.90;;;;;;4980873;28;20081;-82
2023/05/04 04:19:58;;;;;;;7.65;5.38;;;9.30;99.90;;;;;;4980149;28;20086;-81
2023/05/04 04:22:23;;;;;;;12.95;5.95;;;9.50;99.90;;;;;;4968794;28;20533;-81
2023/05/04 04:24:49;;;;;;;14.13;5.85;;;6.00;99.90;;;;;;4960121;28;20051;-82
2023/05/04 04:27:15;;;;;;;8.95;5.88;;;6.60;99.90;;;;;;4961002;28;20117;-84
2023/05/04 04:29:41;;;;;;;10.60;5.80;;;;;;;;;;4978035;28;20554;-81
2023/05/04 04:32:07;;;;;;;8.77;5.18;;;6.60;99.90;;;;;;4975672;28;20059;-82
2023/05/04 04:34:33;;;;;;;9.40;6.35;;;6.40;99.90;;;;;;4961459;28;20054;-82
2023/05/04 04:36:59;;;;;;;13.80;6.35;;;6.60;99.90;;;;;;4978619;28;20046;-83
2023/05/04 04:39:28;;;;;;;12.30;6.28;;;7.90;99.90;;;;;;4963511;28;20086;-82
2023/05/04 04:41:54;;;;;;;13.00;6.53;;;8.80;99.90;;;;;;4982084;28;20086;-81
2023/05/04 04:44:19;;;;;;;13.00;5.65;;;6.60;99.90;;;;;;4980853;28;20050;-82
2023/05/04 04:46:46;;;;;;;10.48;5.82;;;9.70;99.90;;;;;;4973792;28;20054;-81
2023/05/04 04:49:11;;;;;;;10.25;5.53;;;6.30;99.90;;;;;;4975579;28;20051;-81
2023/05/04 04:51:42;;;;;;;13.23;5.50;;;;;;;;;;4997642;28;20042;-81
2023/05/04 04:54:09;;;;;;;11.18;6.38;;;6.60;99.90;;;;;;4961345;28;20340;-82
2023/05/04 04:56:52;;;;;;;12.40;5.47;;;6.70;99.90;;;;;;4976689;28;20398;-86
2023/05/04 04:59:19;;;;;;;16.63;6.13;;;6.70;99.90;;;;;;4971072;28;20058;-81
2023/05/04 05:01:48;;;;;;;11.07;5.63;;;8.90;99.90;;;;;;4981182;28;20051;-81
2023/05/04 05:04:14;;;;;;;11.98;5.60;;;9.40;99.90;;;;;;4979017;28;20054;-81
2023/05/04 05:06:40;;;;;;;8.82;5.97;;;6.80;99.90;;;;;;4973672;28;20058;-83
2023/05/04 05:09:06;;;;;;;10.48;6.10;;;9.80;99.90;;;;;;4972380;28;20100;-81
2023/05/04 05:11:35;;;;;;;14.48;5.75;;;8.70;99.90;;;;;;4964610;28;20057;-81
2023/05/04 05:14:01;;;;;;;9.35;5.35;;;6.30;99.90;;;;;;4955696;28;20054;-80
2023/05/04 05:16:27;;;;;;;9.00;6.15;;;6.60;99.90;;;;;;4971788;28;20062;-83
2023/05/04 05:18:52;;;;;;;13.07;6.28;;;5.20;99.90;;;;;;4959656;28;20580;-83
2023/05/04 05:21:18;;;;;;;10.35;5.32;;;6.80;99.90;;;;;;4959017;28;20046;-81
2023/05/04 05:23:43;;;;;;;10.65;6.10;;;9.20;99.90;;;;;;4957450;28;20077;-84
2023/05/04 05:26:09;;;;;;;9.55;5.10;;;6.60;99.90;;;;;;4957756;28;20070;-80
2023/05/04 05:28:36;;;;;;;8.95;5.60;;;6.60;99.90;;;;;;4938672;28;20079;-85
2023/05/04 05:31:01;;;;;;;12.85;5.72;;;8.40;99.90;;;;;;4958665;28;20055;-81
2023/05/04 05:33:27;;;;;;;11.85;5.15;;;8.90;99.90;;;;;;4961857;28;20474;-83
2023/05/04 05:35:53;;;;;;;9.48;6.07;;;7.00;99.90;;;;;;4942519;29;20059;-81
2023/05/04 05:38:18;;;;;;;9.57;5.57;;;8.40;99.90;;;;;;4965513;28;20644;-83
2023/05/04 05:40:44;;;;;;;10.45;5.80;;;6.90;99.90;;;;;;4961610;28;20137;-81
2023/05/04 05:43:10;;;;;;;11.35;5.53;;;7.00;99.90;;;;;;4941707;29;20043;-81
2023/05/04 05:45:36;;;;;;;8.43;5.07;;;6.50;99.90;;;;;;4947818;28;20121;-81
2023/05/04 05:48:01;;;;;;;11.70;5.85;;;7.00;99.90;;;;;;4961795;28;20059;-82
2023/05/04 05:50:27;;;;;;;12.52;6.20;;;7.30;99.90;;;;;;4961325;28;20146;-83
2023/05/04 05:52:53;;;;;;;11.65;6.10;;;7.00;99.90;;;;;;4965150;28;20061;-80
2023/05/04 05:55:18;;;;;;;13.15;8.25;;;9.70;99.90;;;;;;4963553;28;20542;-81
2023/05/04 05:57:48;;;;;;;15.77;7.20;;;;;;;;;;4958651;28;20042;-81
2023/05/04 06:00:27;;;;;;;9.80;6.13;;;7.10;99.90;;;;;;4983026;28;20058;-82
2023/05/04 06:02:54;;;;;;;10.70;6.57;;;;;;;;;;4965137;28;20056;-83
2023/05/04 06:05:20;;;;;;;14.73;6.43;;;7.20;99.90;;;;;;4947732;28;20074;-82
2023/05/04 06:07:46;;;;;;;10.90;5.93;;;;;;;;;;4942115;28;20046;-82
2023/05/04 06:10:12;;;;;;;12.10;6.05;;;7.20;99.90;;;;;;4965083;28;20050;-82
2023/05/04 06:12:37;;;;;;;13.07;6.30;;;8.30;99.90;;;;;;4975872;28;20046;-83
2023/05/04 06:15:04;;;;;;;10.35;7.07;;;5.30;99.90;;;;;;4979016;28;20075;-80
2023/05/04 06:17:29;;;;;;;14.75;5.72;;;7.30;99.90;;;;;;4946374;28;20411;-82
2023/05/04 06:19:55;;;;;;;14.18;6.50;;;9.90;99.90;;;;;;4961416;28;20054;-84
2023/05/04 06:22:21;;;;;;;10.75;6.38;;;7.40;99.90;;;;;;4928645;28;20157;-84
2023/05/04 06:24:46;;;;;;;12.93;6.07;;;5.90;99.90;;;;;;4966398;28;20137;-85
2023/05/04 06:27:13;;;;;;;16.35;9.23;;;9.30;99.90;;;;;;4977944;28;20503;-82
2023/05/04 06:29:40;;;;;;;14.32;6.32;;;7.50;99.90;;;;;;4967264;28;20047;-85
2023/05/04 06:32:07;;;;;;;13.02;6.40;;;7.50;99.90;;;;;;4984362;28;20057;-80
2023/05/04 06:34:32;;;;;;;10.07;6.28;;;6.80;99.90;;;;;;4954698;28;20054;-84
2023/05/04 06:36:58;;;;;;;15.32;5.78;;;10.10;99.90;;;;;;4966611;28;20054;-83
2023/05/04 06:39:25;;;;;;;12.65;6.78;;;6.00;99.90;;;;;;4937788;28;20061;-85
2023/05/04 06:41:54;;;;;;;10.20;6.60;;;9.00;99.90;;;;;;4265700;28;10000638;-82
2023/05/04 06:44:20;;;;;;;7.20;5.25;;;10.20;99.90;;;;;;4929858;28;20059;-86
2023/05/04 06:46:46;;;;;;;14.38;6.25;;;9.10;99.90;;;;;;4970146;28;20062;-86
2023/05/04 06:49:12;;;;;;;10.82;6.13;;;7.90;99.90;;;;;;4962525;28;20410;-87
2023/05/04 06:51:38;;;;;;;13.60;6.95;;;7.90;99.90;;;;;;4961157;28;20521;-85
2023/05/04 06:54:06;;;;;;;11.50;6.05;;;9.90;99.90;;;;;;4927992;28;20419;-83
2023/05/04 06:56:32;;;;;;;11.65;5.60;;;10.30;99.90;;;;;;4957389;28;20194;-89
2023/05/04 06:58:57;;;;;;;9.93;5.80;;;8.00;99.90;;;;;;4947948;28;20134;-80
2023/05/04 07:01:23;;;;;;;11.13;5.68;;;10.30;99.90;;;;;;4958547;28;20122;-82
2023/05/04 07:03:49;;;;;;;11.65;5.65;;;8.10;99.90;;;;;;4956819;28;20053;-89
2023/05/04 07:06:15;;;;;;;12.77;6.47;;;8.80;99.90;;;;;;4946556;28;20062;-86
2023/05/04 07:08:40;;;;;;;13.15;6.07;;;10.60;99.90;;;;;;4971535;28;20059;-85
2023/05/04 07:11:08;;;;;;;10.07;6.18;;;8.30;99.90;;;;;;4944552;28;20068;-85
2023/05/04 07:13:34;;;;;;;12.73;6.18;;;8.30;99.90;;;;;;4964735;28;20491;-86
2023/05/04 07:15:59;;;;;;;10.40;5.55;;;8.30;99.90;;;;;;4964832;28;20074;-88
2023/05/04 07:18:25;;;;;;;8.10;5.78;;;10.70;99.90;;;;;;4951785;28;20043;-87
2023/05/04 07:20:51;;;;;;;9.88;5.40;;;8.50;99.90;;;;;;4953894;28;20062;-85
2023/05/04 07:23:17;;;;;;;14.38;6.25;;;8.50;99.90;;;;;;4967991;28;20062;-84
2023/05/04 07:25:43;;;;;;;11.32;5.85;;;8.50;99.90;;;;;;4989704;28;20062;-85
2023/05/04 07:28:09;;;;;;;10.30;5.43;;;8.60;99.90;;;;;;4958309;28;20055;-86
2023/05/04 07:30:34;;;;;;;8.95;5.63;;;8.60;99.90;;;;;;4947126;28;20051;-85
2023/05/04 07:33:00;;;;;;;13.57;6.70;;;6.80;99.90;;;;;;4954582;28;20050;-85
2023/05/04 07:35:26;;;;;;;10.30;6.57;;;8.70;99.90;;;;;;4950247;28;20181;-86
2023/05/04 07:37:53;;;;;;;12.65;7.22;;;8.70;99.90;;;;;;4967890;28;20688;-86
2023/05/04 07:40:19;;;;;;;10.52;6.43;;;11.30;99.90;;;;;;4949612;28;20062;-86
2023/05/04 07:42:45;;;;;;;12.00;5.55;;;9.60;99.90;;;;;;4965249;28;20046;-81
2023/05/04 07:45:11;;;;;;;9.70;6.97;;;7.10;99.90;;;;;;4976524;28;20077;-81
2023/05/04 07:47:37;;;;;;;6.93;5.85;;;11.10;99.90;;;;;;4953902;28;20092;-81
2023/05/04 07:50:03;;;;;;;16.17;7.15;;;11.50;99.90;;;;;;4960429;28;20653;-80
2023/05/04 07:52:29;;;;;;;11.93;6.13;;;9.20;99.90;;;;;;4947893;28;20051;-82
2023/05/04 07:54:55;;;;;;;10.88;5.63;;;9.90;99.90;;;;;;4966750;28;20053;-80
2023/05/04 07:57:21;;;;;;;14.35;5.72;;;9.10;99.90;;;;;;4948325;28;20470;-81
2023/05/04 07:59:47;;;;;;;13.52;6.07;;;9.90;99.90;;;;;;4967560;28;20050;-85
2023/05/04 08:02:12;;;;;;;11.32;5.70;;;11.30;99.90;;;;;;4940386;28;20085;-83
2023/05/04 08:04:38;;;;;;;13.23;6.55;;;9.40;99.90;;;;;;4959052;28;20050;-82
2023/05/04 08:07:04;;;;;;;15.15;6.00;;;9.40;99.90;;;;;;4956236;28;20051;-83
2023/05/04 08:09:29;;;;;;;12.32;6.10;;;11.10;99.90;;;;;;4957809;28;20486;-83
2023/05/04 08:11:55;;;;;;;10.95;6.35;;;11.60;99.90;;;;;;4967980;28;20057;-83
2023/05/04 08:14:20;;;;;;;8.23;5.65;;;9.80;99.90;;;;;;4948836;28;20047;-81
2023/05/04 08:16:47;;;;;;;14.27;6.38;;;;;;;;;;4963876;28;20047;-80
2023/05/04 08:19:13;;;;;;;14.00;6.43;;;9.80;99.90;;;;;;4957067;28;20058;-82
2023/05/04 08:21:39;;;;;;;12.10;5.75;;;9.90;99.90;;;;;;4974844;28;20129;-83
2023/05/04 08:24:06;;;;;;;11.90;5.07;;;10.90;99.90;;;;;;4966925;28;20195;-80
2023/05/04 08:26:32;;;;;;;9.52;5.75;;;12.40;99.90;;;;;;4947521;28;20086;-82
2023/05/04 08:29:09;;;;;;;10.95;5.70;;;10.10;99.90;;;;;;4960103;28;20040;-85
2023/05/04 08:31:35;;;;;;;11.52;6.43;;;10.30;99.90;;;;;;4953748;28;20134;-81
2023/05/04 08:34:01;;;;;;;8.98;6.60;;;12.60;99.90;;;;;;4955444;28;20190;-80
2023/05/04 08:36:26;;;;;;;12.02;5.80;;;10.20;99.90;;;;;;4943699;28;20493;-82
2023/05/04 08:38:52;;;;;;;9.60;5.50;;;10.40;99.90;;;;;;4962982;28;20488;-82
2023/05/04 08:41:18;;;;;;;12.25;4.93;;;10.40;99.90;;;;;;4958535;28;20051;-81
2023/05/04 08:43:45;;;;;;;10.57;5.10;;;10.80;99.90;;;;;;4952354;28;20406;-82
2023/05/04 08:46:15;;;;;;;12.00;5.88;;;13.10;99.90;;;;;;4959389;28;20098;-82
2023/05/04 08:48:43;;;;;;;7.47;5.05;;;;;;;;;;4960372;28;20375;-81
2023/05/04 08:51:10;;;;;;;10.25;5.10;;;10.80;99.90;;;;;;4945499;28;20477;-81
2023/05/04 08:53:39;;;;;;;10.13;5.40;;;10.90;99.90;;;;;;4945848;28;20058;-82
2023/05/04 08:56:11;;;;;;;9.07;5.65;;;11.30;99.90;;;;;;4948753;28;20050;-83
2023/05/04 08:58:47;;;;;;;7.72;5.20;;;11.30;99.90;;;;;;4964731;28;20054;-82
2023/05/04 09:01:14;;;;;;;10.10;5.43;;;13.50;99.90;;;;;;4960885;28;20051;-83
2023/05/04 09:03:40;;;;;;;9.48;5.97;;;11.20;99.90;;;;;;4965453;28;20402;-84
2023/05/04 09:06:07;;;;;;;9.00;5.25;;;12.00;99.90;;;;;;4961212;28;20051;-81
2023/05/04 09:08:33;;;;;;;7.47;4.85;;;;;;;;;;4958169;28;20039;-86
2023/05/04 09:10:58;;;;;;;7.88;5.40;;;11.40;99.90;;;;;;4945623;28;20059;-80
2023/05/04 09:13:25;;;;;;;12.68;5.47;;;11.50;99.90;;;;;;4960938;28;20082;-84
2023/05/04 09:16:02;;;;;;;8.85;4.60;;;12.00;99.90;;;;;;5117384;27;20393;-83
2023/05/04 09:18:36;;;;;;;6.55;4.55;;;11.60;99.90;;;;;;5068197;28;20070;-90
2023/05/04 09:21:05;;;;;;;11.07;5.35;;;13.30;99.90;;;;;;5065881;28;20040;-85
2023/05/04 09:23:32;;;;;;;9.98;4.72;;;11.80;99.90;;;;;;5083952;28;20036;-84
2023/05/04 09:25:57;;;;;;;12.88;5.15;;;11.90;99.90;;;;;;5082277;28;20133;-82
2023/05/04 09:28:37;;;;;;;12.57;4.75;;;10.80;99.90;;;;;;5083200;28;20076;-83
2023/05/04 09:31:05;;;;;;;11.18;4.78;;;12.10;99.90;;;;;;5066195;28;20514;-82
2023/05/04 09:33:30;;;;;;;9.15;3.95;;;12.20;99.90;;;;;;5065791;28;20044;-82
2023/05/04 09:36:19;;;;;;;6.35;4.00;;;14.60;99.90;;;;;;5082701;28;20372;-83
2023/05/04 09:38:45;;;;;;;9.00;3.55;;;12.30;99.90;;;;;;5066086;28;20040;-83
2023/05/04 09:41:12;;;;;;;6.35;3.78;;;12.30;99.90;;;;;;5064354;28;20047;-85
2023/05/04 09:43:40;;;;;;;5.78;4.50;;;14.40;99.90;;;;;;5066501;28;20082;-83
2023/05/04 09:46:07;;;;;;;7.32;3.97;;;12.50;99.90;;;;;;5066619;28;20050;-82
2023/05/04 09:48:35;;;;;;;5.75;3.25;;;12.60;99.90;;;;;;5084485;28;20056;-80
2023/05/04 09:51:02;;;;;;;7.00;3.92;;;14.40;99.90;;;;;;5083210;28;20048;-83
2023/05/04 09:53:29;;;;;;;7.30;4.15;;;12.90;99.90;;;;;;5084203;28;20040;-82
2023/05/04 09:55:58;;;;;;;10.13;4.05;;;13.40;99.90;;;;;;5078339;28;20044;-81
2023/05/04 09:58:24;;;;;;;10.45;4.28;;;13.10;99.90;;;;;;5071901;28;20073;-83
2023/05/04 10:00:53;;;;;;;7.85;4.00;;;13.30;99.90;;;;;;5080002;28;20048;-84
2023/05/04 10:03:28;;;;;;;8.48;4.30;;;13.80;99.90;;;;;;5070725;28;20043;-86
2023/05/04 10:05:54;;;;;;;11.32;4.38;;;13.40;99.90;;;;;;5078954;28;20388;-82
2023/05/04 10:08:20;;;;;;;6.88;4.10;;;15.60;99.90;;;;;;5059382;28;20044;-82
2023/05/04 10:10:47;;;;;;;5.93;3.22;;;15.70;99.90;;;;;;5075463;28;20058;-83
2023/05/04 10:13:12;;;;;;;6.47;3.92;;;13.60;99.90;;;;;;5085758;28;20044;-82
2023/05/04 10:15:51;;;;;;;7.63;3.97;;;14.30;99.90;;;;;;5083636;28;20047;-82
2023/05/04 10:18:44;;;;;;;14.85;4.47;;;13.80;99.90;;;;;;5049679;28;20052;-83
2023/05/04 10:21:25;;;;;;;5.97;3.28;;;13.80;99.90;;;;;;5066133;28;20446;-83
2023/05/04 10:24:13;;;;;;;7.63;3.38;;;14.00;99.90;;;;;;5075832;28;20044;-82
2023/05/04 10:26:58;;;;;;;10.70;3.95;;;14.00;99.90;;;;;;5072469;28;20045;-83
2023/05/04 10:29:27;;;;;;;5.05;3.75;;;14.10;99.90;;;;;;5076359;28;20446;-84
2023/05/04 10:31:53;;;;;;;5.18;3.83;;;14.20;99.90;;;;;;5069620;28;20045;-82
2023/05/04 10:34:25;;;;;;;7.07;3.60;;;14.40;99.90;;;;;;5063774;28;20526;-82
2023/05/04 10:36:53;;;;;;;6.43;3.58;;;14.40;99.90;;;;;;5062700;28;20411;-82
2023/05/04 10:39:20;;;;;;;8.48;3.95;;;14.50;99.90;;;;;;5044464;28;20472;-83
2023/05/04 10:41:58;;;;;;;8.82;4.07;;;14.50;99.90;;;;;;5061759;28;20037;-82
2023/05/04 10:44:24;;;;;;;6.82;3.65;;;14.60;99.90;;;;;;5045057;28;20079;-82
2023/05/04 10:47:35;;;;;;;7.70;4.30;;;14.70;99.90;;;;;;5067910;28;20155;-84
2023/05/04 10:50:03;;;;;;;7.15;3.92;;;14.80;99.90;;;;;;5055612;28;20055;-82
2023/05/04 10:52:30;;;;;;;7.95;3.47;;;13.70;99.90;;;;;;5051436;28;20511;-82
2023/05/04 10:55:01;;;;;;;9.15;4.38;;;14.90;99.90;;;;;;5052720;28;20041;-83
2023/05/04 10:57:28;;;;;;;7.22;4.38;;;15.00;99.90;;;;;;5076752;28;20041;-83
2023/05/04 10:59:56;;;;;;;8.13;4.15;;;16.80;99.90;;;;;;5064802;28;20553;-82
2023/05/04 11:02:24;;;;;;;19.13;11.55;;;15.10;99.90;;;;;;5057948;28;20507;-83
2023/05/04 11:05:03;;;;;;;75.00;50.40;;;15.30;99.90;;;;;;5052579;28;20098;-82
2023/05/04 11:07:37;;;;;;;9.40;5.18;;;15.50;99.90;;;;;;5069553;28;20048;-82
2023/05/04 11:10:08;;;;;;;8.75;4.13;;;15.40;99.90;;;;;;5062201;28;20052;-83
2023/05/04 11:12:36;;;;;;;9.50;4.30;;;15.80;99.90;;;;;;5044698;28;20433;-83
2023/05/04 11:15:11;;;;;;;12.90;4.93;;;15.90;99.90;;;;;;5060419;28;20052;-83
2023/05/04 11:17:51;;;;;;;7.00;4.45;;;16.10;99.90;;;;;;5061149;28;20518;-83
2023/05/04 11:20:21;;;;;;;7.90;3.60;;;16.10;99.90;;;;;;5067045;28;20044;-84
2023/05/04 11:22:47;;;;;;;6.65;3.90;;;16.20;99.90;;;;;;5066673;28;20078;-84
2023/05/04 11:25:13;;;;;;;10.27;4.38;;;16.80;99.90;;;;;;5069399;28;20416;-83
2023/05/04 11:27:40;;;;;;;5.93;3.60;;;16.30;99.90;;;;;;5060204;28;20051;-84
2023/05/04 11:30:06;;;;;;;6.60;3.60;;;16.30;99.90;;;;;;5044333;28;20036;-83
2023/05/04 11:32:36;;;;;;;9.27;4.05;;;16.50;99.90;;;;;;5060554;28;20079;-83
2023/05/04 11:35:03;;;;;;;11.05;4.30;;;16.60;99.90;;;;;;5066568;28;20460;-83
2023/05/04 11:37:29;;;;;;;7.72;4.65;;;16.70;99.90;;;;;;5067636;28;20134;-83
2023/05/04 11:39:56;;;;;;;9.77;3.63;;;16.90;99.90;;;;;;5069900;28;20052;-81
2023/05/04 11:42:23;;;;;;;5.90;3.45;;;17.00;99.90;;;;;;5060263;28;20049;-82
2023/05/04 11:44:50;;;;;;;11.85;3.78;;;17.20;99.90;;;;;;5062556;28;20044;-83
2023/05/04 11:47:16;;;;;;;7.70;3.90;;;17.40;99.90;;;;;;5068538;28;20075;-82
2023/05/04 11:49:43;;;;;;;8.25;3.53;;;17.70;99.90;;;;;;5066331;28;20393;-82
2023/05/04 11:52:09;;;;;;;4.53;3.20;;;18.40;99.90;;;;;;5068177;28;20040;-82
2023/05/04 11:54:38;;;;;;;8.10;3.55;;;17.90;99.70;;;;;;5069419;28;20036;-83
2023/05/04 11:57:03;;;;;;;4.88;3.63;;;18.80;98.80;;;;;;5067259;28;20373;-83
2023/05/04 11:59:30;;;;;;;6.35;3.40;;;18.10;98.20;;;;;;5065194;28;20052;-82
2023/05/04 12:01:56;;;;;;;8.48;4.28;;;19.90;98.80;;;;;;5043675;28;20041;-82
2023/05/04 12:04:22;;;;;;;5.00;2.85;;;18.40;98.00;;;;;;5050985;28;20040;-82
2023/05/04 12:06:50;;;;;;;6.78;3.08;;;18.50;98.00;;;;;;5051997;28;20129;-83
2023/05/04 12:09:16;;;;;;;8.27;4.20;;;18.70;98.10;;;;;;5069686;28;20500;-83
2023/05/04 12:11:57;;;;;;;9.38;3.50;;;18.90;97.60;;;;;;5069141;28;20127;-83
2023/05/04 12:14:23;;;;;;;7.53;3.60;;;19.00;95.60;;;;;;5061121;28;20420;-83
2023/05/04 12:16:56;;;;;;;7.75;3.63;;;19.00;95.70;;;;;;5067317;28;20488;-83
2023/05/04 12:19:22;;;;;;;5.55;3.45;;;19.10;95.70;;;;;;5067155;28;20499;-83
2023/05/04 12:21:53;;;;;;;10.98;4.05;;;19.10;95.30;;;;;;5066404;28;20036;-83
2023/05/04 12:24:26;;;;;;;8.68;3.85;;;19.20;94.90;;;;;;5049554;28;20499;-83
2023/05/04 12:26:52;;;;;;;7.07;4.20;;;19.30;95.10;;;;;;5048767;28;20115;-83
2023/05/04 12:29:17;;;;;;;6.63;3.42;;;20.20;95.20;;;;;;5064507;28;20123;-84
2023/05/04 12:31:43;;;;;;;6.90;3.47;;;19.50;95.00;;;;;;5066582;28;20048;-82
2023/05/04 12:34:09;;;;;;;7.35;3.78;;;19.60;94.70;;;;;;5059521;28;20040;-83
2023/05/04 12:36:34;;;;;;;8.43;3.63;;;19.80;94.50;;;;;;5062847;28;20122;-84
2023/05/04 12:39:00;;;;;;;10.52;3.75;;;19.90;94.10;;;;;;5067380;28;20039;-83
2023/05/04 12:41:26;;;;;;;8.50;4.18;;;20.00;93.60;;;;;;5063162;28;20041;-81
2023/05/04 12:43:52;;;;;;;8.27;3.95;;;20.10;93.30;;;;;;5067375;28;20031;-82
2023/05/04 12:46:21;;;;;;;6.00;3.50;;;20.00;92.90;;;;;;5062805;28;20120;-81
2023/05/04 12:48:48;;;;;;;7.97;4.00;;;20.10;93.10;;;;;;5068206;28;20092;-82
2023/05/04 12:51:13;;;;;;;7.22;4.32;;;20.10;92.90;;;;;;5044673;28;20051;-82
2023/05/04 12:53:40;;;;;;;8.00;3.85;;;20.20;92.90;;;;;;5061098;28;20056;-83
2023/05/04 12:56:05;;;;;;;5.43;3.88;;;20.20;92.70;;;;;;5066333;28;20051;-81